createdAt,value
2019-05-20T00:00:40.539Z,0.00
2019-05-20T00:01:40.525Z,0.00
2019-05-20T00:02:40.519Z,0.00
2019-05-20T00:03:40.520Z,0.00
2019-05-20T00:04:40.508Z,0.00
2019-05-20T00:05:40.548Z,0.00
2019-05-20T00:06:40.496Z,0.00
2019-05-20T00:07:40.490Z,0.00
2019-05-20T00:08:40.491Z,0.00
2019-05-20T00:09:40.483Z,0.00
2019-05-20T00:10:40.483Z,0.00
2019-05-20T00:11:40.472Z,0.00
2019-05-20T00:12:40.468Z,0.00
2019-05-20T00:13:40.459Z,0.00
2019-05-20T00:14:40.450Z,0.00
2019-05-20T00:15:40.446Z,0.00
2019-05-20T00:16:40.450Z,0.00
2019-05-20T00:17:40.437Z,0.00
2019-05-20T00:18:40.431Z,0.00
2019-05-20T00:19:40.438Z,0.00
2019-05-20T00:20:40.419Z,0.00
2019-05-20T00:21:40.410Z,0.00
2019-05-20T00:22:40.404Z,0.00
2019-05-20T00:23:40.402Z,0.00
2019-05-20T00:24:40.399Z,0.00
2019-05-20T00:25:40.388Z,0.00
2019-05-20T00:26:40.382Z,0.00
2019-05-20T00:27:40.377Z,0.00
2019-05-20T00:28:40.373Z,0.00
2019-05-20T00:29:40.369Z,0.00
2019-05-20T00:30:40.363Z,0.00
2019-05-20T00:31:40.355Z,0.00
2019-05-20T00:32:42.114Z,0.00
2019-05-20T00:33:40.372Z,0.00
2019-05-20T00:34:40.336Z,0.00
2019-05-20T00:35:40.341Z,0.00
2019-05-20T00:36:40.324Z,0.00
2019-05-20T00:37:40.331Z,0.00
2019-05-20T00:38:40.320Z,0.00
2019-05-20T00:39:40.307Z,0.00
2019-05-20T00:40:40.302Z,0.00
2019-05-20T00:41:40.297Z,0.00
2019-05-20T00:42:40.291Z,0.00
2019-05-20T00:43:40.294Z,0.00
2019-05-20T00:44:40.277Z,0.00
2019-05-20T00:45:40.272Z,0.00
2019-05-20T00:46:40.267Z,0.00
2019-05-20T00:47:40.263Z,0.00
2019-05-20T00:48:40.257Z,0.00
2019-05-20T00:49:40.250Z,0.00
2019-05-20T00:50:40.249Z,0.00
2019-05-20T00:51:40.241Z,0.00
2019-05-20T00:52:40.234Z,0.00
2019-05-20T00:53:40.224Z,0.00
2019-05-20T00:54:40.218Z,0.00
2019-05-20T00:55:40.217Z,0.00
2019-05-20T00:56:40.211Z,0.00
2019-05-20T00:57:40.201Z,0.00
2019-05-20T00:58:40.195Z,0.00
2019-05-20T00:59:40.190Z,0.00
2019-05-20T01:00:40.185Z,0.00
2019-05-20T01:01:40.182Z,0.00
2019-05-20T01:02:40.169Z,0.00
2019-05-20T01:03:40.171Z,0.00
2019-05-20T01:04:40.163Z,0.00
2019-05-20T01:05:40.158Z,0.00
2019-05-20T01:06:40.147Z,0.00
2019-05-20T01:07:40.141Z,0.00
2019-05-20T01:08:40.137Z,0.00
2019-05-20T01:09:40.133Z,0.00
2019-05-20T01:10:40.131Z,0.00
2019-05-20T01:11:40.118Z,0.00
2019-05-20T01:12:40.111Z,0.00
2019-05-20T01:13:40.110Z,0.00
2019-05-20T01:14:40.102Z,0.00
2019-05-20T01:15:40.096Z,0.00
2019-05-20T01:16:40.097Z,0.00
2019-05-20T01:17:40.081Z,0.00
2019-05-20T01:18:40.079Z,0.00
2019-05-20T01:19:40.078Z,0.00
2019-05-20T01:20:40.063Z,0.00
2019-05-20T01:21:40.062Z,0.00
2019-05-20T01:22:40.054Z,0.00
2019-05-20T01:23:40.042Z,0.00
2019-05-20T01:24:40.042Z,0.00
2019-05-20T01:25:40.031Z,0.00
2019-05-20T01:26:40.026Z,0.00
2019-05-20T01:27:40.022Z,0.00
2019-05-20T01:28:40.018Z,0.00
2019-05-20T01:29:40.006Z,0.00
2019-05-20T01:30:40.000Z,0.00
2019-05-20T01:31:39.994Z,0.00
2019-05-20T01:32:39.988Z,0.00
2019-05-20T01:33:39.978Z,0.00
2019-05-20T01:34:39.980Z,0.00
2019-05-20T01:35:39.975Z,0.00
2019-05-20T01:36:39.969Z,0.00
2019-05-20T01:37:39.956Z,0.00
2019-05-20T01:38:39.951Z,0.00
2019-05-20T01:39:39.943Z,0.00
2019-05-20T01:40:39.939Z,0.00
2019-05-20T01:41:39.940Z,0.00
2019-05-20T01:42:39.936Z,0.00
2019-05-20T01:43:39.924Z,0.00
2019-05-20T01:44:39.918Z,0.00
2019-05-20T01:45:39.912Z,0.00
2019-05-20T01:46:39.909Z,0.00
2019-05-20T01:47:39.945Z,0.00
2019-05-20T01:48:39.895Z,0.00
2019-05-20T01:49:39.885Z,0.00
2019-05-20T01:50:39.880Z,0.00
2019-05-20T01:51:39.872Z,0.00
2019-05-20T01:52:39.871Z,0.00
2019-05-20T01:53:39.910Z,0.00
2019-05-20T01:54:39.856Z,0.00
2019-05-20T01:55:39.852Z,0.00
2019-05-20T01:56:39.847Z,0.00
2019-05-20T01:57:39.834Z,0.00
2019-05-20T01:58:39.902Z,0.00
2019-05-20T01:59:39.826Z,0.00
2019-05-20T02:00:39.820Z,0.00
2019-05-20T02:01:39.811Z,0.00
2019-05-20T02:02:39.806Z,0.00
2019-05-20T02:03:39.807Z,0.00
2019-05-20T02:04:39.793Z,0.00
2019-05-20T02:05:39.791Z,0.00
2019-05-20T02:06:39.787Z,0.00
2019-05-20T02:07:39.776Z,0.00
2019-05-20T02:08:39.770Z,0.00
2019-05-20T02:09:39.761Z,0.00
2019-05-20T02:10:39.756Z,0.00
2019-05-20T02:11:39.750Z,0.00
2019-05-20T02:12:39.745Z,0.00
2019-05-20T02:13:39.744Z,0.00
2019-05-20T02:14:39.734Z,0.00
2019-05-20T02:15:39.731Z,0.00
2019-05-20T02:16:39.720Z,0.00
2019-05-20T02:17:39.717Z,0.00
2019-05-20T02:18:39.711Z,0.00
2019-05-20T02:19:39.706Z,0.00
2019-05-20T02:20:39.706Z,0.00
2019-05-20T02:21:39.715Z,0.00
2019-05-20T02:22:39.689Z,0.00
2019-05-20T02:23:39.681Z,0.00
2019-05-20T02:24:39.675Z,0.00
2019-05-20T02:25:39.677Z,0.00
2019-05-20T02:26:39.667Z,0.00
2019-05-20T02:27:39.662Z,0.00
2019-05-20T02:28:39.655Z,0.00
2019-05-20T02:29:39.647Z,0.00
2019-05-20T02:30:39.640Z,0.00
2019-05-20T02:31:39.644Z,0.00
2019-05-20T02:32:39.637Z,0.00
2019-05-20T02:33:50.842Z,0.00
2019-05-20T02:34:39.619Z,0.00
2019-05-20T02:35:39.612Z,0.00
2019-05-20T02:36:39.609Z,0.00
2019-05-20T02:37:39.608Z,0.00
2019-05-20T02:38:39.600Z,0.00
2019-05-20T02:39:39.595Z,0.00
2019-05-20T02:40:39.589Z,0.00
2019-05-20T02:41:39.585Z,0.00
2019-05-20T02:42:39.579Z,0.00
2019-05-20T02:43:39.571Z,0.00
2019-05-20T02:44:39.567Z,0.00
2019-05-20T02:45:39.561Z,0.00
2019-05-20T02:46:39.557Z,0.00
2019-05-20T02:47:39.556Z,0.00
2019-05-20T02:48:39.887Z,0.00
2019-05-20T02:49:39.549Z,0.00
2019-05-20T02:50:39.537Z,0.00
2019-05-20T02:51:39.543Z,0.00
2019-05-20T02:52:39.528Z,0.00
2019-05-20T02:53:39.526Z,0.00
2019-05-20T02:54:39.525Z,0.00
2019-05-20T02:55:39.510Z,0.00
2019-05-20T02:56:39.503Z,0.00
2019-05-20T02:57:39.503Z,0.00
2019-05-20T02:58:39.501Z,0.00
2019-05-20T02:59:39.495Z,0.00
2019-05-20T03:00:39.487Z,0.00
2019-05-20T03:01:39.478Z,0.00
2019-05-20T03:02:39.507Z,0.00
2019-05-20T03:03:39.472Z,0.00
2019-05-20T03:04:39.482Z,0.00
2019-05-20T03:05:39.463Z,0.00
2019-05-20T03:06:39.448Z,0.00
2019-05-20T03:07:39.447Z,0.00
2019-05-20T03:08:39.442Z,0.00
2019-05-20T03:09:39.442Z,0.00
2019-05-20T03:10:39.432Z,0.00
2019-05-20T03:11:39.439Z,0.00
2019-05-20T03:12:39.425Z,0.00
2019-05-20T03:13:39.419Z,0.00
2019-05-20T03:14:40.001Z,0.00
2019-05-20T03:15:39.403Z,0.00
2019-05-20T03:16:39.403Z,0.00
2019-05-20T03:17:39.400Z,0.00
2019-05-20T03:18:39.393Z,0.00
2019-05-20T03:19:39.382Z,0.00
2019-05-20T03:20:39.379Z,0.00
2019-05-20T03:21:39.377Z,4.00
2019-05-20T03:22:39.375Z,4.00
2019-05-20T03:23:39.368Z,4.00
2019-05-20T03:24:39.362Z,0.00
2019-05-20T03:25:39.356Z,4.00
2019-05-20T03:26:39.348Z,4.00
2019-05-20T03:27:39.345Z,4.00
2019-05-20T03:28:39.341Z,4.00
2019-05-20T03:29:39.336Z,4.00
2019-05-20T03:30:39.335Z,8.00
2019-05-20T03:31:39.326Z,4.00
2019-05-20T03:32:39.361Z,8.00
2019-05-20T03:33:39.317Z,8.00
2019-05-20T03:34:46.498Z,8.00
2019-05-20T03:35:39.334Z,8.00
2019-05-20T03:36:39.307Z,8.00
2019-05-20T03:37:39.290Z,12.00
2019-05-20T03:38:39.292Z,12.00
2019-05-20T03:39:39.283Z,8.00
2019-05-20T03:40:39.269Z,12.00
2019-05-20T03:41:39.339Z,12.00
2019-05-20T03:42:39.267Z,16.00
2019-05-20T03:43:39.267Z,12.00
2019-05-20T03:44:39.261Z,16.00
2019-05-20T03:45:39.250Z,16.00
2019-05-20T03:46:39.251Z,20.00
2019-05-20T03:47:39.248Z,20.00
2019-05-20T03:48:39.238Z,24.00
2019-05-20T03:49:39.230Z,24.00
2019-05-20T03:50:39.229Z,32.00
2019-05-20T03:51:39.634Z,28.00
2019-05-20T03:52:39.211Z,32.00
2019-05-20T03:53:39.214Z,36.00
2019-05-20T03:54:39.214Z,36.00
2019-05-20T03:55:39.204Z,36.00
2019-05-20T03:56:39.198Z,44.00
2019-05-20T03:57:39.191Z,56.00
2019-05-20T03:58:39.191Z,68.00
2019-05-20T03:59:39.182Z,68.00
2019-05-20T04:00:39.174Z,76.00
2019-05-20T04:01:39.180Z,80.00
2019-05-20T04:02:39.170Z,84.00
2019-05-20T04:03:39.168Z,92.00
2019-05-20T04:04:39.729Z,104.00
2019-05-20T04:05:39.169Z,100.00
2019-05-20T04:06:39.149Z,104.00
2019-05-20T04:07:39.154Z,108.00
2019-05-20T04:08:39.141Z,92.00
2019-05-20T04:09:39.132Z,92.00
2019-05-20T04:10:39.133Z,96.00
2019-05-20T04:11:39.134Z,104.00
2019-05-20T04:12:39.129Z,108.00
2019-05-20T04:13:39.134Z,124.00
2019-05-20T04:14:39.114Z,144.00
2019-05-20T04:15:39.112Z,152.00
2019-05-20T04:16:39.103Z,164.00
2019-05-20T04:17:39.092Z,160.00
2019-05-20T04:18:39.094Z,160.00
2019-05-20T04:19:39.084Z,160.00
2019-05-20T04:20:39.083Z,184.00
2019-05-20T04:21:39.108Z,172.00
2019-05-20T04:22:39.213Z,180.00
2019-05-20T04:23:39.098Z,192.00
2019-05-20T04:24:39.068Z,188.00
2019-05-20T04:25:39.060Z,188.00
2019-05-20T04:26:39.058Z,184.00
2019-05-20T04:27:39.059Z,164.00
2019-05-20T04:28:39.043Z,168.00
2019-05-20T04:29:39.040Z,172.00
2019-05-20T04:30:39.029Z,172.00
2019-05-20T04:31:39.034Z,156.00
2019-05-20T04:32:39.032Z,176.00
2019-05-20T04:33:39.018Z,192.00
2019-05-20T04:34:39.034Z,196.00
2019-05-20T04:35:39.015Z,212.00
2019-05-20T04:36:39.008Z,204.00
2019-05-20T04:37:38.996Z,180.00
2019-05-20T04:38:38.992Z,180.00
2019-05-20T04:39:38.987Z,204.00
2019-05-20T04:40:38.987Z,224.00
2019-05-20T04:41:38.992Z,196.00
2019-05-20T04:42:38.976Z,240.00
2019-05-20T04:43:38.974Z,272.00
2019-05-20T04:44:38.967Z,256.00
2019-05-20T04:45:38.966Z,268.00
2019-05-20T04:46:38.959Z,292.00
2019-05-20T04:47:38.949Z,288.00
2019-05-20T04:48:38.956Z,288.00
2019-05-20T04:49:38.946Z,280.00
2019-05-20T04:50:38.936Z,252.00
2019-05-20T04:51:38.932Z,252.00
2019-05-20T04:52:38.930Z,252.00
2019-05-20T04:53:38.929Z,272.00
2019-05-20T04:54:38.921Z,320.00
2019-05-20T04:55:38.916Z,352.00
2019-05-20T04:56:38.913Z,332.00
2019-05-20T04:57:38.914Z,384.00
2019-05-20T04:58:38.896Z,352.00
2019-05-20T04:59:38.899Z,312.00
2019-05-20T05:00:38.892Z,324.00
2019-05-20T05:01:38.887Z,372.00
2019-05-20T05:02:42.917Z,360.00
2019-05-20T05:03:38.877Z,324.00
2019-05-20T05:04:38.873Z,332.00
2019-05-20T05:05:38.867Z,364.00
2019-05-20T05:06:38.874Z,392.00
2019-05-20T05:07:38.859Z,360.00
2019-05-20T05:08:38.854Z,372.00
2019-05-20T05:09:38.845Z,368.00
2019-05-20T05:10:38.846Z,388.00
2019-05-20T05:11:38.843Z,436.00
2019-05-20T05:12:38.836Z,452.00
2019-05-20T05:13:38.831Z,480.00
2019-05-20T05:14:38.827Z,496.00
2019-05-20T05:15:38.816Z,536.00
2019-05-20T05:16:38.817Z,540.00
2019-05-20T05:17:38.813Z,560.00
2019-05-20T05:18:38.812Z,520.00
2019-05-20T05:19:38.803Z,604.00
2019-05-20T05:20:38.799Z,572.00
2019-05-20T05:21:38.791Z,576.00
2019-05-20T05:22:38.786Z,552.00
2019-05-20T05:23:38.782Z,544.00
2019-05-20T05:24:38.777Z,560.00
2019-05-20T05:25:38.798Z,564.00
2019-05-20T05:26:38.776Z,600.00
2019-05-20T05:27:38.765Z,644.00
2019-05-20T05:28:38.758Z,680.00
2019-05-20T05:29:38.833Z,696.00
2019-05-20T05:30:38.761Z,692.00
2019-05-20T05:31:38.755Z,696.00
2019-05-20T05:32:38.742Z,736.00
2019-05-20T05:33:38.736Z,744.00
2019-05-20T05:34:38.736Z,708.00
2019-05-20T05:35:52.263Z,788.00
2019-05-20T05:36:38.724Z,980.00
2019-05-20T05:37:38.721Z,932.00
2019-05-20T05:38:38.717Z,856.00
2019-05-20T05:39:38.714Z,888.00
2019-05-20T05:40:38.710Z,860.00
2019-05-20T05:41:38.705Z,900.00
2019-05-20T05:42:38.695Z,992.00
2019-05-20T05:43:38.710Z,988.00
2019-05-20T05:44:38.699Z,976.00
2019-05-20T05:45:39.280Z,1104.00
2019-05-20T05:46:38.685Z,1140.00
2019-05-20T05:47:38.673Z,1136.00
2019-05-20T05:48:38.672Z,1176.00
2019-05-20T05:49:38.670Z,1232.00
2019-05-20T05:50:38.655Z,1316.00
2019-05-20T05:51:38.660Z,1332.00
2019-05-20T05:52:38.663Z,1340.00
2019-05-20T05:53:38.647Z,1352.00
2019-05-20T05:54:38.652Z,1416.00
2019-05-20T05:55:38.637Z,1380.00
2019-05-20T05:56:38.634Z,1476.00
2019-05-20T05:57:38.633Z,1492.00
2019-05-20T05:58:38.628Z,1488.00
2019-05-20T05:59:38.622Z,1528.00
2019-05-20T06:00:38.620Z,1476.00
2019-05-20T06:01:38.616Z,1364.00
2019-05-20T06:02:38.611Z,1396.00
2019-05-20T06:03:38.617Z,1436.00
2019-05-20T06:04:38.607Z,1440.00
2019-05-20T06:05:38.597Z,1296.00
2019-05-20T06:06:38.591Z,1360.00
2019-05-20T06:07:38.600Z,1388.00
2019-05-20T06:08:38.610Z,1300.00
2019-05-20T06:09:38.589Z,1244.00
2019-05-20T06:10:38.578Z,1172.00
2019-05-20T06:11:38.574Z,1016.00
2019-05-20T06:12:38.568Z,1216.00
2019-05-20T06:13:38.563Z,1200.00
2019-05-20T06:14:38.557Z,1152.00
2019-05-20T06:15:38.559Z,1124.00
2019-05-20T06:16:38.552Z,900.00
2019-05-20T06:17:38.544Z,892.00
2019-05-20T06:18:38.541Z,872.00
2019-05-20T06:19:38.538Z,732.00
2019-05-20T06:20:38.534Z,772.00
2019-05-20T06:21:38.534Z,792.00
2019-05-20T06:22:38.533Z,740.00
2019-05-20T06:23:38.524Z,752.00
2019-05-20T06:24:38.517Z,824.00
2019-05-20T06:25:38.515Z,820.00
2019-05-20T06:26:38.509Z,888.00
2019-05-20T06:27:38.505Z,1020.00
2019-05-20T06:28:38.503Z,980.00
2019-05-20T06:29:38.499Z,1056.00
2019-05-20T06:30:38.523Z,1196.00
2019-05-20T06:31:38.492Z,1220.00
2019-05-20T06:32:38.487Z,1220.00
2019-05-20T06:33:38.485Z,1108.00
2019-05-20T06:34:38.478Z,1180.00
2019-05-20T06:35:38.482Z,1236.00
2019-05-20T06:36:38.477Z,1260.00
2019-05-20T06:37:38.462Z,1224.00
2019-05-20T06:38:38.456Z,1160.00
2019-05-20T06:39:38.456Z,1128.00
2019-05-20T06:40:38.453Z,1104.00
2019-05-20T06:41:38.456Z,1092.00
2019-05-20T06:42:38.640Z,932.00
2019-05-20T06:43:38.739Z,948.00
2019-05-20T06:44:51.668Z,940.00
2019-05-20T06:45:38.430Z,908.00
2019-05-20T06:46:38.434Z,912.00
2019-05-20T06:47:38.422Z,980.00
2019-05-20T06:48:38.432Z,976.00
2019-05-20T06:49:38.417Z,1008.00
2019-05-20T06:50:38.411Z,1000.00
2019-05-20T06:51:38.406Z,972.00
2019-05-20T06:52:38.403Z,976.00
2019-05-20T06:53:38.399Z,1012.00
2019-05-20T06:54:38.399Z,836.00
2019-05-20T06:55:38.393Z,848.00
2019-05-20T06:56:38.387Z,1004.00
2019-05-20T06:57:38.381Z,1168.00
2019-05-20T06:58:38.377Z,1196.00
2019-05-20T06:59:38.371Z,1216.00
2019-05-20T07:00:38.377Z,1304.00
2019-05-20T07:01:38.368Z,1256.00
2019-05-20T07:02:38.369Z,1412.00
2019-05-20T07:03:38.354Z,1272.00
2019-05-20T07:04:38.349Z,1084.00
2019-05-20T07:05:38.389Z,1128.00
2019-05-20T07:06:46.743Z,1072.00
2019-05-20T07:07:38.344Z,1100.00
2019-05-20T07:08:38.340Z,1144.00
2019-05-20T07:09:38.341Z,1060.00
2019-05-20T07:10:38.336Z,1048.00
2019-05-20T07:11:38.339Z,956.00
2019-05-20T07:12:41.660Z,1036.00
2019-05-20T07:13:38.322Z,1136.00
2019-05-20T07:14:38.308Z,1152.00
2019-05-20T07:15:38.313Z,1144.00
2019-05-20T07:16:38.309Z,952.00
2019-05-20T07:17:38.291Z,892.00
2019-05-20T07:18:38.294Z,940.00
2019-05-20T07:19:38.301Z,956.00
2019-05-20T07:20:38.289Z,916.00
2019-05-20T07:21:38.286Z,876.00
2019-05-20T07:22:54.453Z,924.00
2019-05-20T07:23:38.281Z,1100.00
2019-05-20T07:24:38.280Z,1228.00
2019-05-20T07:25:38.292Z,1216.00
2019-05-20T07:26:38.263Z,1220.00
2019-05-20T07:27:38.261Z,1236.00
2019-05-20T07:28:38.271Z,1368.00
2019-05-20T07:29:38.260Z,1364.00
2019-05-20T07:30:38.244Z,1344.00
2019-05-20T07:31:38.247Z,1376.00
2019-05-20T07:32:38.238Z,1388.00
2019-05-20T07:33:38.247Z,1332.00
2019-05-20T07:34:38.231Z,1436.00
2019-05-20T07:35:38.219Z,1272.00
2019-05-20T07:36:38.221Z,1132.00
2019-05-20T07:37:38.237Z,1424.00
2019-05-20T07:38:38.225Z,1608.00
2019-05-20T07:39:38.219Z,1612.00
2019-05-20T07:40:38.204Z,1712.00
2019-05-20T07:41:41.336Z,1692.00
2019-05-20T07:42:38.195Z,1572.00
2019-05-20T07:43:38.207Z,1532.00
2019-05-20T07:44:38.187Z,1524.00
2019-05-20T07:45:38.183Z,1420.00
2019-05-20T07:46:38.168Z,1420.00
2019-05-20T07:47:38.176Z,1424.00
2019-05-20T07:48:38.185Z,1276.00
2019-05-20T07:49:38.174Z,1168.00
2019-05-20T07:50:38.164Z,1144.00
2019-05-20T07:51:38.224Z,1128.00
2019-05-20T07:52:38.158Z,1136.00
2019-05-20T07:53:38.175Z,1108.00
2019-05-20T07:54:38.153Z,1060.00
2019-05-20T07:55:38.144Z,996.00
2019-05-20T07:56:38.145Z,908.00
2019-05-20T07:57:38.123Z,1032.00
2019-05-20T07:58:38.132Z,1104.00
2019-05-20T07:59:38.133Z,1208.00
2019-05-20T08:00:38.128Z,1228.00
2019-05-20T08:01:38.118Z,1180.00
2019-05-20T08:02:38.115Z,1148.00
2019-05-20T08:03:38.818Z,1184.00
2019-05-20T08:04:38.133Z,1252.00
2019-05-20T08:05:38.118Z,1280.00
2019-05-20T08:06:38.123Z,1284.00
2019-05-20T08:07:51.492Z,1336.00
2019-05-20T08:08:38.085Z,1364.00
2019-05-20T08:09:45.362Z,1404.00
2019-05-20T08:10:38.073Z,1380.00
2019-05-20T08:11:38.114Z,1408.00
2019-05-20T08:12:38.062Z,1424.00
2019-05-20T08:13:38.085Z,1584.00
2019-05-20T08:14:38.074Z,1616.00
2019-05-20T08:15:38.071Z,1616.00
2019-05-20T08:16:38.075Z,1684.00
2019-05-20T08:17:38.061Z,1772.00
2019-05-20T08:18:38.045Z,1724.00
2019-05-20T08:19:38.053Z,1632.00
2019-05-20T08:20:38.037Z,1544.00
2019-05-20T08:21:38.056Z,1432.00
2019-05-20T08:22:38.027Z,1312.00
2019-05-20T08:23:38.043Z,1248.00
2019-05-20T08:24:38.029Z,1240.00
2019-05-20T08:25:38.020Z,1212.00
2019-05-20T08:26:38.052Z,1248.00
2019-05-20T08:27:38.013Z,1332.00
2019-05-20T08:28:38.012Z,1404.00
2019-05-20T08:29:38.003Z,1484.00
2019-05-20T08:30:38.010Z,1580.00
2019-05-20T08:31:38.003Z,1720.00
2019-05-20T08:32:38.011Z,1808.00
2019-05-20T08:33:37.987Z,1840.00
2019-05-20T08:34:39.125Z,1848.00
2019-05-20T08:35:38.139Z,1844.00
2019-05-20T08:36:37.978Z,1852.00
2019-05-20T08:37:45.501Z,1876.00
2019-05-20T08:38:37.964Z,1832.00
2019-05-20T08:39:37.967Z,1848.00
2019-05-20T08:40:37.957Z,1904.00
2019-05-20T08:41:37.962Z,1816.00
2019-05-20T08:42:37.947Z,1712.00
2019-05-20T08:43:37.943Z,1704.00
2019-05-20T08:44:37.948Z,1796.00
2019-05-20T08:45:37.939Z,1872.00
2019-05-20T08:46:37.932Z,1804.00
2019-05-20T08:47:37.937Z,1812.00
2019-05-20T08:48:37.931Z,1804.00
2019-05-20T08:49:38.124Z,1764.00
2019-05-20T08:50:37.916Z,1840.00
2019-05-20T08:51:37.915Z,1788.00
2019-05-20T08:52:37.918Z,1700.00
2019-05-20T08:53:37.944Z,1764.00
2019-05-20T08:54:40.221Z,1804.00
2019-05-20T08:55:37.914Z,1800.00
2019-05-20T08:56:37.895Z,1776.00
2019-05-20T08:57:37.904Z,1808.00
2019-05-20T08:58:37.883Z,1592.00
2019-05-20T08:59:37.889Z,1624.00
2019-05-20T09:00:37.874Z,1644.00
2019-05-20T09:01:37.883Z,1656.00
2019-05-20T09:02:37.896Z,1632.00
2019-05-20T09:03:37.865Z,1680.00
2019-05-20T09:04:37.897Z,1648.00
2019-05-20T09:05:37.922Z,1552.00
2019-05-20T09:06:37.852Z,1620.00
2019-05-20T09:07:37.903Z,1592.00
2019-05-20T09:08:37.848Z,1692.00
2019-05-20T09:09:37.907Z,1636.00
2019-05-20T09:10:39.624Z,1632.00
2019-05-20T09:11:37.859Z,1660.00
2019-05-20T09:12:37.835Z,1628.00
2019-05-20T09:13:37.849Z,1648.00
2019-05-20T09:14:40.523Z,1740.00
2019-05-20T09:15:37.824Z,1704.00
2019-05-20T09:16:37.828Z,1764.00
2019-05-20T09:17:38.973Z,1984.00
2019-05-20T09:18:37.813Z,1960.00
2019-05-20T09:19:37.805Z,2084.00
2019-05-20T09:20:37.793Z,1972.00
2019-05-20T09:21:37.800Z,1856.00
2019-05-20T09:22:37.789Z,1696.00
2019-05-20T09:23:37.793Z,1860.00
2019-05-20T09:24:37.838Z,1976.00
2019-05-20T09:25:37.782Z,2044.00
2019-05-20T09:26:37.780Z,2112.00
2019-05-20T09:27:37.790Z,2252.00
2019-05-20T09:28:37.764Z,2176.00
2019-05-20T09:29:38.213Z,2132.00
2019-05-20T09:30:37.753Z,2188.00
2019-05-20T09:31:37.781Z,2264.00
2019-05-20T09:32:37.761Z,2240.00
2019-05-20T09:33:37.749Z,2284.00
2019-05-20T09:34:37.787Z,2260.00
2019-05-20T09:35:37.733Z,2148.00
2019-05-20T09:36:37.771Z,2140.00
2019-05-20T09:37:37.737Z,2316.00
2019-05-20T09:38:37.809Z,2332.00
2019-05-20T09:39:37.719Z,2060.00
2019-05-20T09:40:37.734Z,2204.00
2019-05-20T09:41:37.741Z,2416.00
2019-05-20T09:42:40.859Z,2656.00
2019-05-20T09:43:37.765Z,2736.00
2019-05-20T09:44:37.766Z,2476.00
2019-05-20T09:45:37.737Z,2228.00
2019-05-20T09:46:37.698Z,2292.00
2019-05-20T09:47:37.694Z,2392.00
2019-05-20T09:48:37.732Z,2348.00
2019-05-20T09:49:37.729Z,2304.00
2019-05-20T09:50:37.684Z,2100.00
2019-05-20T09:51:37.721Z,2148.00
2019-05-20T09:52:37.679Z,2272.00
2019-05-20T09:53:37.670Z,2472.00
2019-05-20T09:54:37.710Z,2248.00
2019-05-20T09:55:37.849Z,2268.00
2019-05-20T09:56:37.662Z,2232.00
2019-05-20T09:57:37.660Z,2112.00
2019-05-20T09:58:37.688Z,1968.00
2019-05-20T09:59:43.159Z,1812.00
2019-05-20T10:00:37.636Z,1784.00
2019-05-20T10:01:40.292Z,1700.00
2019-05-20T10:02:38.436Z,1700.00
2019-05-20T10:03:37.631Z,1748.00
2019-05-20T10:04:37.636Z,1852.00
2019-05-20T10:05:38.051Z,1884.00
2019-05-20T10:06:37.619Z,1820.00
2019-05-20T10:07:37.618Z,1916.00
2019-05-20T10:08:43.515Z,1840.00
2019-05-20T10:09:37.614Z,1768.00
2019-05-20T10:10:37.602Z,2172.00
2019-05-20T10:11:37.611Z,2624.00
2019-05-20T10:12:45.857Z,2684.00
2019-05-20T10:13:37.612Z,2756.00
2019-05-20T10:14:37.599Z,2636.00
2019-05-20T10:15:37.622Z,2512.00
2019-05-20T10:16:37.595Z,2656.00
2019-05-20T10:17:37.586Z,2260.00
2019-05-20T10:18:39.265Z,2104.00
2019-05-20T10:19:37.567Z,1940.00
2019-05-20T10:20:37.573Z,1928.00
2019-05-20T10:21:37.607Z,1936.00
2019-05-20T10:22:37.573Z,1824.00
2019-05-20T10:23:37.559Z,2048.00
2019-05-20T10:24:37.558Z,2144.00
2019-05-20T10:25:37.571Z,2276.00
2019-05-20T10:26:37.551Z,2240.00
2019-05-20T10:27:37.549Z,2424.00
2019-05-20T10:28:41.975Z,2512.00
2019-05-20T10:29:37.543Z,2212.00
2019-05-20T10:30:37.541Z,2348.00
2019-05-20T10:31:37.548Z,2220.00
2019-05-20T10:32:37.528Z,2376.00
2019-05-20T10:33:37.519Z,2308.00
2019-05-20T10:34:37.890Z,2468.00
2019-05-20T10:35:37.529Z,2728.00
2019-05-20T10:36:37.534Z,2876.00
2019-05-20T10:37:37.508Z,2864.00
2019-05-20T10:38:54.906Z,2944.00
2019-05-20T10:39:37.495Z,3056.00
2019-05-20T10:40:37.509Z,2980.00
2019-05-20T10:41:37.506Z,3160.00
2019-05-20T10:42:37.504Z,3240.00
2019-05-20T10:43:37.486Z,3496.00
2019-05-20T10:44:37.490Z,3128.00
2019-05-20T10:45:37.492Z,3264.00
2019-05-20T10:46:37.478Z,2888.00
2019-05-20T10:47:37.474Z,2748.00
2019-05-20T10:48:37.471Z,3052.00
2019-05-20T10:49:37.467Z,2980.00
2019-05-20T10:50:37.456Z,2740.00
2019-05-20T10:51:37.460Z,2760.00
2019-05-20T10:52:37.454Z,2948.00
2019-05-20T10:53:37.449Z,2572.00
2019-05-20T10:54:37.456Z,2720.00
2019-05-20T10:55:37.442Z,2380.00
2019-05-20T10:56:37.479Z,2356.00
2019-05-20T10:57:37.498Z,2412.00
2019-05-20T10:58:37.434Z,2356.00
2019-05-20T10:59:37.429Z,2432.00
2019-05-20T11:00:37.453Z,2316.00
2019-05-20T11:01:37.423Z,2216.00
2019-05-20T11:02:37.417Z,2324.00
2019-05-20T11:03:37.416Z,2332.00
2019-05-20T11:04:37.413Z,2512.00
2019-05-20T11:05:37.479Z,2416.00
2019-05-20T11:06:37.409Z,2816.00
2019-05-20T11:07:37.406Z,2988.00
2019-05-20T11:08:37.401Z,2848.00
2019-05-20T11:09:37.403Z,3116.00
2019-05-20T11:10:37.391Z,3296.00
2019-05-20T11:11:39.414Z,3200.00
2019-05-20T11:12:37.381Z,3020.00
2019-05-20T11:13:37.384Z,2688.00
2019-05-20T11:14:37.382Z,2504.00
2019-05-20T11:15:37.375Z,2616.00
2019-05-20T11:16:37.374Z,2708.00
2019-05-20T11:17:37.365Z,2632.00
2019-05-20T11:18:37.359Z,2704.00
2019-05-20T11:19:37.363Z,2552.00
2019-05-20T11:20:37.359Z,2360.00
2019-05-20T11:21:37.359Z,2344.00
2019-05-20T11:22:37.350Z,2264.00
2019-05-20T11:23:37.346Z,2368.00
2019-05-20T11:24:37.341Z,2324.00
2019-05-20T11:25:37.339Z,2608.00
2019-05-20T11:26:37.342Z,2740.00
2019-05-20T11:27:37.333Z,2552.00
2019-05-20T11:28:37.330Z,2500.00
2019-05-20T11:29:37.323Z,2532.00
2019-05-20T11:30:37.320Z,2516.00
2019-05-20T11:31:37.317Z,2624.00
2019-05-20T11:32:37.359Z,2528.00
2019-05-20T11:33:37.322Z,2404.00
2019-05-20T11:34:37.320Z,2328.00
2019-05-20T11:35:37.305Z,2304.00
2019-05-20T11:36:37.309Z,2336.00
2019-05-20T11:37:37.301Z,2812.00
2019-05-20T11:38:37.297Z,3140.00
2019-05-20T11:39:37.296Z,3468.00
2019-05-20T11:40:37.298Z,3436.00
2019-05-20T11:41:52.819Z,3328.00
2019-05-20T11:42:37.287Z,3724.00
2019-05-20T11:43:37.278Z,3868.00
2019-05-20T11:44:37.271Z,4172.00
2019-05-20T11:45:37.270Z,4500.00
2019-05-20T11:46:37.272Z,4496.00
2019-05-20T11:47:37.257Z,4180.00
2019-05-20T11:48:37.280Z,4036.00
2019-05-20T11:49:37.255Z,3736.00
2019-05-20T11:50:37.260Z,3996.00
2019-05-20T11:51:37.253Z,4008.00
2019-05-20T11:52:37.249Z,3700.00
2019-05-20T11:53:37.241Z,3704.00
2019-05-20T11:54:37.234Z,3520.00
2019-05-20T11:55:37.238Z,3196.00
2019-05-20T11:56:37.335Z,3104.00
2019-05-20T11:57:37.255Z,3108.00
2019-05-20T11:58:37.229Z,3196.00
2019-05-20T11:59:37.225Z,2796.00
2019-05-20T12:00:37.229Z,2660.00
2019-05-20T12:01:37.220Z,2472.00
2019-05-20T12:02:37.220Z,2728.00
2019-05-20T12:03:37.206Z,2744.00
2019-05-20T12:04:37.201Z,2436.00
2019-05-20T12:05:37.217Z,2584.00
2019-05-20T12:06:37.209Z,2336.00
2019-05-20T12:07:37.204Z,2316.00
2019-05-20T12:08:37.186Z,2288.00
2019-05-20T12:09:49.031Z,2372.00
2019-05-20T12:10:37.182Z,2784.00
2019-05-20T12:11:37.180Z,3100.00
2019-05-20T12:12:37.198Z,2940.00
2019-05-20T12:13:37.175Z,2800.00
2019-05-20T12:14:37.173Z,2732.00
2019-05-20T12:15:37.173Z,2748.00
2019-05-20T12:16:37.159Z,2628.00
2019-05-20T12:17:37.178Z,2548.00
2019-05-20T12:18:37.165Z,2456.00
2019-05-20T12:19:37.162Z,2500.00
2019-05-20T12:20:37.171Z,2488.00
2019-05-20T12:21:37.146Z,2544.00
2019-05-20T12:22:37.138Z,2576.00
2019-05-20T12:23:37.142Z,2748.00
2019-05-20T12:24:37.204Z,2836.00
2019-05-20T12:25:37.145Z,2836.00
2019-05-20T12:26:37.134Z,2684.00
2019-05-20T12:27:37.145Z,2288.00
2019-05-20T12:28:37.132Z,2220.00
2019-05-20T12:29:37.149Z,2148.00
2019-05-20T12:30:37.152Z,2216.00
2019-05-20T12:31:37.121Z,2152.00